Time;durP1;ratioP1;P1;durP2;ratioP2;P2;SDS_P1;SDS_P2;PMS_P1;PMS_P2;Temp;Humidity;BMP_temperature;BMP_pressure;BME280_temperature;BME280_humidity;BME280_pressure;Samples;Min_cycle;Max_cycle;Signal;HPM_P1;HPM_P2
2022/09/05 00:02:37;;;;;;;5.90;2.42;;;;;;;14.03;59.42;101577.27;3349962;85;98879;-86
2022/09/05 00:08:26;;;;;;;5.92;2.20;;;;;;;13.99;59.46;101573.06;3363875;85;98901;-87
2022/09/05 00:13:33;;;;;;;7.97;2.87;;;;;;;13.97;59.43;101575.42;3343763;85;99138;-93
2022/09/05 00:18:58;;;;;;;7.65;1.98;;;;;;;13.94;59.42;101568.42;3382335;85;99100;-86
2022/09/05 00:24:22;;;;;;;5.05;1.80;;;;;;;13.92;59.49;101574.35;3388724;85;98925;-87
2022/09/05 00:30:02;;;;;;;5.10;1.92;;;;;;;13.89;59.87;101577.06;3378622;85;98851;-85
2022/09/05 00:35:15;;;;;;;4.72;1.90;;;;;;;13.85;59.92;101570.06;3381506;85;98731;-87
2022/09/05 00:40:27;;;;;;;6.45;2.60;;;;;;;13.83;59.97;101567.45;3447452;83;99618;-87
2022/09/05 00:45:42;;;;;;;9.05;2.40;;;;;;;13.79;60.12;101566.02;3455434;83;99026;-86
2022/09/05 00:51:24;;;;;;;5.20;1.85;;;;;;;13.76;60.15;101576.46;3427524;82;99048;-86
2022/09/05 00:56:59;;;;;;;4.42;1.77;;;;;;;13.73;60.33;101576.41;3427871;83;98970;-87
2022/09/05 01:02:35;;;;;;;4.20;1.87;;;;;;;13.70;60.49;101574.37;3423931;83;98965;-86
2022/09/05 01:07:56;;;;;;;5.10;1.80;;;;;;;13.65;60.77;101578.25;3367882;84;98954;-85
2022/09/05 01:13:17;;;;;;;4.53;1.87;;;;;;;13.59;60.66;101581.69;3408279;84;99251;-89
2022/09/05 01:18:36;;;;;;;4.87;1.82;;;;;;;13.53;60.81;101582.56;3404022;84;99068;-86
2022/09/05 01:24:08;;;;;;;5.03;2.03;;;;;;;13.45;60.99;101582.81;3388160;83;98891;-86
2022/09/05 01:29:27;;;;;;;6.08;2.00;;;;;;;13.38;61.27;101576.59;3463393;83;99045;-86
2022/09/05 01:34:48;;;;;;;4.37;2.10;;;;;;;13.33;61.50;101585.77;3466000;83;98903;-88
2022/09/05 01:40:07;;;;;;;6.45;2.22;;;;;;;13.28;61.80;101590.20;3459944;82;98857;-88
2022/09/05 01:45:32;;;;;;;7.45;2.08;;;;;;;13.23;61.72;101587.74;3465453;83;98899;-87
2022/09/05 01:51:05;;;;;;;5.20;1.87;;;;;;;13.17;62.05;101582.30;3468099;83;99076;-87
2022/09/05 01:56:33;;;;;;;3.75;1.82;;;;;;;13.14;62.05;101586.59;3467149;83;99261;-91
2022/09/05 02:02:13;;;;;;;3.87;1.77;;;;;;;13.07;62.47;101582.32;3456905;83;99261;-87
2022/09/05 02:07:22;;;;;;;5.37;2.00;;;;;;;13.05;62.53;101589.37;3449411;83;99011;-88
2022/09/05 02:12:41;;;;;;;4.70;1.82;;;;;;;13.00;62.53;101591.86;3455641;83;98940;-87
2022/09/05 02:17:47;;;;;;;5.03;1.82;;;;;;;12.95;62.84;101591.31;3388052;84;98892;-87
2022/09/05 02:22:58;;;;;;;;;;;;;;;12.91;62.76;101599.53;3396724;84;98930;-87
2022/09/05 02:28:10;;;;;;;4.85;1.75;;;;;;;12.86;63.20;101601.80;3402273;83;85108;-86
2022/09/05 02:33:22;;;;;;;5.33;1.77;;;;;;;12.83;62.86;101601.95;3358376;85;98872;-86
2022/09/05 02:38:45;;;;;;;3.90;1.90;;;;;;;12.81;62.87;101614.53;3387769;83;99237;-90
2022/09/05 02:44:15;;;;;;;5.42;1.30;;;;;;;12.78;62.83;101611.09;3410108;84;98748;-85
2022/09/05 02:49:34;;;;;;;3.93;1.80;;;;;;;12.73;62.93;101608.05;3392067;84;99015;-87
2022/09/05 02:54:41;;;;;;;3.97;1.50;;;;;;;12.67;63.10;101598.45;3400446;84;98846;-87
2022/09/05 03:00:07;;;;;;;5.22;1.90;;;;;;;12.64;63.39;101605.29;3448474;83;98720;-87
2022/09/05 03:05:31;;;;;;;4.37;1.77;;;;;;;12.60;63.32;101601.64;3435605;83;98901;-89
2022/09/05 03:11:11;;;;;;;5.97;1.95;;;;;;;12.56;63.57;101601.58;3437668;83;99072;-87
2022/09/05 03:16:58;;;;;;;3.33;1.57;;;;;;;12.53;63.39;101607.80;3437362;83;98707;-86
2022/09/05 03:22:36;;;;;;;2.77;1.52;;;;;;;12.50;63.44;101606.35;3432428;83;98663;-87
2022/09/05 03:28:09;;;;;;;6.17;1.93;;;;;;;12.43;63.66;101608.37;3442979;83;99154;-85
2022/09/05 03:33:39;;;;;;;3.85;1.57;;;;;;;12.42;63.75;101613.67;3447065;83;98967;-86
2022/09/05 03:39:10;;;;;;;5.25;1.47;;;;;;;12.38;63.75;101615.55;3435521;83;98891;-87
2022/09/05 03:44:25;;;;;;;5.07;1.50;;;;;;;12.34;63.71;101611.11;3421363;83;98793;-87
2022/09/05 03:49:35;;;;;;;6.08;2.10;;;;;;;12.31;64.13;101617.38;3417312;84;98769;-86
2022/09/05 03:54:53;;;;;;;4.65;1.50;;;;;;;12.28;64.06;101619.46;3418524;83;98934;-90
2022/09/05 04:00:28;;;;;;;4.60;1.50;;;;;;;12.24;64.01;101618.57;3369173;84;99012;-86
2022/09/05 04:05:40;;;;;;;3.05;1.20;;;;;;;12.22;64.11;101625.04;3410429;84;99056;-92
2022/09/05 04:11:05;;;;;;;4.00;1.20;;;;;;;12.19;64.11;101628.50;3420655;83;98709;-87
2022/09/05 04:16:37;;;;;;;5.65;1.75;;;;;;;12.17;64.15;101630.83;3421908;84;98727;-90
2022/09/05 04:21:50;;;;;;;5.12;1.67;;;;;;;12.15;64.25;101634.55;3424671;83;99029;-91
2022/09/05 04:27:13;;;;;;;4.65;1.57;;;;;;;12.11;64.35;101645.47;3406827;83;99006;-90
2022/09/05 04:32:26;;;;;;;4.95;1.60;;;;;;;12.09;64.52;101642.28;3413472;84;98903;-86
2022/09/05 04:37:47;;;;;;;6.25;2.08;;;;;;;12.08;64.58;101644.01;3414946;83;98806;-87
2022/09/05 04:42:51;;;;;;;6.22;1.60;;;;;;;12.05;64.60;101644.74;3459560;82;98854;-87
2022/09/05 04:47:55;;;;;;;3.17;1.22;;;;;;;12.01;64.80;101640.52;3476485;83;99005;-86
2022/09/05 04:53:36;;;;;;;2.33;1.20;;;;;;;12.01;65.19;101646.60;3480130;82;98770;-86
2022/09/05 04:58:42;;;;;;;3.27;1.47;;;;;;;12.01;65.13;101656.27;3491797;82;98781;-87
2022/09/05 05:03:44;;;;;;;;;;;;;;;12.01;65.17;101656.27;3476445;81;98779;-86
2022/09/05 05:09:09;;;;;;;5.20;1.60;;;;;;;12.01;65.75;101653.50;3455304;82;85297;-89
2022/09/05 05:14:28;;;;;;;4.80;1.52;;;;;;;12.02;65.42;101662.00;3432214;82;98728;-88
2022/09/05 05:19:44;;;;;;;6.90;2.55;;;;;;;12.03;65.56;101664.97;3437237;82;98894;-89
2022/09/05 05:24:49;;;;;;;5.85;1.40;;;;;;;12.06;66.25;101669.80;3445637;82;98882;-88
2022/09/05 05:30:01;;;;;;;3.90;1.50;;;;;;;12.10;65.80;101661.03;3455264;83;99015;-88
2022/09/05 05:35:12;;;;;;;4.33;1.37;;;;;;;12.15;65.96;101671.20;3480661;81;98864;-90
2022/09/05 05:40:21;;;;;;;3.85;1.50;;;;;;;12.21;65.80;101672.53;3465770;81;99072;-91
2022/09/05 05:45:32;;;;;;;5.87;1.92;;;;;;;12.27;65.82;101677.22;3438796;83;99303;-90
2022/09/05 05:50:51;;;;;;;6.73;2.43;;;;;;;12.37;65.80;101682.97;3447559;83;107394;-90
2022/09/05 05:56:09;;;;;;;3.75;1.45;;;;;;;12.46;65.79;101682.21;3441609;82;99214;-91
2022/09/05 06:01:43;;;;;;;8.05;1.35;;;;;;;12.61;65.94;101690.23;3437097;83;99073;-93
2022/09/05 06:07:09;;;;;;;9.35;1.85;;;;;;;12.76;65.65;101694.33;3440109;83;98911;-90
2022/09/05 06:13:01;;;;;;;6.30;1.80;;;;;;;12.94;65.25;101694.73;3437673;83;98841;-94
2022/09/05 06:18:38;;;;;;;5.90;1.65;;;;;;;13.08;65.00;101696.45;3440894;83;99183;-92
2022/09/05 06:24:30;;;;;;;6.37;2.40;;;;;;;13.20;64.73;101694.92;3444383;83;98938;-92
2022/09/05 06:29:59;;;;;;;5.50;1.50;;;;;;;13.34;64.74;101693.24;3411617;83;99228;-93
2022/09/05 06:35:22;;;;;;;6.65;1.60;;;;;;;13.52;64.45;101693.59;3435954;83;98907;-92
2022/09/05 06:41:01;;;;;;;6.10;1.60;;;;;;;13.68;64.09;101690.94;3435190;83;98950;-91
2022/09/05 06:46:29;;;;;;;2.60;0.95;;;;;;;13.83;64.05;101690.60;3447596;83;98923;-90
2022/09/05 06:51:47;;;;;;;2.60;1.27;;;;;;;14.06;63.21;101697.75;3443376;83;98996;-90
2022/09/05 06:57:12;;;;;;;3.62;1.35;;;;;;;14.27;62.74;101690.39;3452414;82;98954;-89
2022/09/05 07:02:30;;;;;;;6.10;1.50;;;;;;;14.44;62.66;101696.23;3429159;83;99060;-91
2022/09/05 07:07:41;;;;;;;3.63;1.30;;;;;;;14.69;61.97;101691.87;3438847;83;98840;-87
2022/09/05 07:12:56;;;;;;;4.67;1.27;;;;;;;14.95;60.77;101683.53;3445378;83;98985;-90
2022/09/05 07:18:21;;;;;;;5.33;1.52;;;;;;;15.16;60.33;101696.25;3421778;83;99070;-88
2022/09/05 07:23:54;;;;;;;4.22;1.02;;;;;;;15.42;59.08;101699.59;3436436;83;98867;-88
2022/09/05 07:29:01;;;;;;;2.55;1.20;;;;;;;15.61;58.76;101700.78;3441767;83;98971;-90
2022/09/05 07:34:28;;;;;;;4.03;1.30;;;;;;;15.84;58.29;101710.55;3449473;83;98949;-90
2022/09/05 07:39:35;;;;;;;3.50;1.20;;;;;;;16.11;57.24;101715.36;3444458;83;98857;-89
2022/09/05 07:44:42;;;;;;;3.73;1.13;;;;;;;16.34;56.41;101718.73;3462156;82;99096;-94
2022/09/05 07:49:49;;;;;;;4.28;1.07;;;;;;;16.54;55.89;101713.17;3479064;83;98834;-92
2022/09/05 07:55:07;;;;;;;;;;;;;;;;;;;;;
2022/09/05 08:00:10;;;;;;;5.00;1.20;;;;;;;16.95;54.17;101725.77;3465325;82;85067;-89
2022/09/05 08:05:14;;;;;;;5.42;1.07;;;;;;;17.16;53.84;101728.67;3470567;82;98873;-91
2022/09/05 08:10:38;;;;;;;5.15;1.30;;;;;;;17.36;53.67;101732.13;3463707;82;98790;-88
2022/09/05 08:15:47;;;;;;;3.15;0.98;;;;;;;17.59;53.48;101727.66;3437931;82;99000;-93
2022/09/05 08:21:14;;;;;;;2.85;1.07;;;;;;;17.82;52.77;101730.31;3466126;83;98850;-89
2022/09/05 08:26:40;;;;;;;4.83;1.17;;;;;;;18.09;52.79;101717.62;3464070;83;98883;-91
2022/09/05 08:32:10;;;;;;;4.05;1.10;;;;;;;18.48;53.08;101715.66;3469521;83;98849;-92
2022/09/05 08:37:16;;;;;;;4.50;1.22;;;;;;;18.95;53.07;101724.95;3464120;82;99057;-88
2022/09/05 08:42:42;;;;;;;4.55;1.35;;;;;;;19.44;51.34;101716.44;3454910;83;98984;-95
2022/09/05 08:48:07;;;;;;;3.15;1.25;;;;;;;20.04;51.21;101714.67;3418361;83;99612;-86
2022/09/05 08:53:32;;;;;;;3.45;0.90;;;;;;;20.77;50.12;101695.87;3422421;84;98872;-92
2022/09/05 08:59:12;;;;;;;3.52;1.12;;;;;;;21.69;49.01;101688.59;3332547;84;99373;-88
2022/09/05 09:04:42;;;;;;;3.87;1.27;;;;;;;22.55;48.07;101687.00;3346398;85;99103;-88
2022/09/05 09:09:53;;;;;;;5.65;1.72;;;;;;;23.15;46.21;101685.86;3410266;83;99100;-88
2022/09/05 09:15:18;;;;;;;2.30;1.02;;;;;;;23.91;44.50;101689.61;3407699;83;99227;-88
2022/09/05 09:20:40;;;;;;;2.85;1.22;;;;;;;24.79;44.60;101682.57;3379585;83;98909;-93
2022/09/05 09:25:47;;;;;;;9.30;1.92;;;;;;;25.53;42.09;101679.81;3426319;83;100378;-87
2022/09/05 09:31:31;;;;;;;4.45;1.30;;;;;;;25.96;41.87;101680.09;3403313;83;98960;-90
2022/09/05 09:37:14;;;;;;;6.05;1.20;;;;;;;26.12;38.96;101669.47;3411844;83;99094;-93
2022/09/05 09:42:56;;;;;;;4.33;1.22;;;;;;;26.51;38.64;101670.95;3414503;83;99158;-88
2022/09/05 09:48:17;;;;;;;7.85;1.55;;;;;;;27.12;39.43;101655.01;3417894;83;98812;-88
2022/09/05 09:53:28;;;;;;;25.60;3.50;;;;;;;27.71;37.52;101662.42;3472064;82;99226;-89
2022/09/05 09:58:59;;;;;;;4.37;1.00;;;;;;;28.13;36.59;101653.03;3435564;83;99302;-88
2022/09/05 10:04:14;;;;;;;4.30;1.12;;;;;;;28.56;35.51;101656.27;3424024;82;98834;-92
2022/09/05 10:10:00;;;;;;;3.65;1.30;;;;;;;29.31;35.40;101653.87;3462175;82;99020;-87
2022/09/05 10:15:50;;;;;;;3.95;1.02;;;;;;;28.94;33.69;101641.76;3383786;84;98989;-88
2022/09/05 10:21:32;;;;;;;3.65;0.90;;;;;;;28.67;31.99;101636.11;3368361;84;98736;-87
2022/09/05 10:27:10;;;;;;;2.75;0.90;;;;;;;28.49;28.43;101641.77;3405050;84;98934;-91
2022/09/05 10:32:23;;;;;;;3.37;1.55;;;;;;;28.16;32.12;101627.25;3378640;84;98892;-89
2022/09/05 10:37:30;;;;;;;4.15;1.15;;;;;;;28.32;31.66;101626.31;3339949;85;99052;-87
2022/09/05 10:42:37;;;;;;;1.25;0.70;;;;;;;28.31;30.54;101627.58;3327847;86;99203;-92
2022/09/05 10:47:47;;;;;;;11.78;1.62;;;;;;;28.76;31.17;101624.01;3421128;83;98966;-92
2022/09/05 10:53:41;;;;;;;3.67;0.93;;;;;;;28.80;30.36;101615.49;3422515;82;99161;-89
2022/09/05 10:59:18;;;;;;;2.90;0.93;;;;;;;29.14;29.94;101623.65;3411492;84;99032;-89
2022/09/05 11:04:53;;;;;;;4.72;0.80;;;;;;;29.47;30.29;101613.80;3429836;83;98907;-90
2022/09/05 11:10:13;;;;;;;4.53;0.90;;;;;;;29.82;29.25;101614.30;3415850;84;98930;-90
2022/09/05 11:15:51;;;;;;;6.15;0.82;;;;;;;29.71;28.97;101608.36;3420686;84;99015;-91
2022/09/05 11:21:18;;;;;;;10.23;1.00;;;;;;;29.57;28.49;101611.08;3425781;83;98928;-92
2022/09/05 11:26:55;;;;;;;3.17;0.60;;;;;;;29.09;28.14;101611.53;3418531;83;99037;-89
2022/09/05 11:32:25;;;;;;;8.80;0.93;;;;;;;28.99;27.50;101614.22;3411563;84;98818;-90
2022/09/05 11:37:44;;;;;;;7.20;0.62;;;;;;;28.96;28.05;101598.19;3409417;83;98844;-88
2022/09/05 11:43:34;;;;;;;1.72;0.42;;;;;;;28.76;27.46;101601.34;3351645;84;99125;-88
2022/09/05 11:55:23;;;;;;;0.57;0.40;;;;;;;28.68;26.80;101604.31;3424250;82;98875;-82
2022/09/05 12:00:33;;;;;;;3.00;0.50;;;;;;;28.50;27.23;101588.75;3554902;81;98912;-85
2022/09/05 12:05:58;;;;;;;2.17;0.55;;;;;;;28.43;27.70;101582.77;3540793;81;99082;-85
2022/09/05 12:11:19;;;;;;;0.82;0.30;;;;;;;28.31;27.53;101597.84;3545741;81;98800;-84
2022/09/05 12:16:44;;;;;;;3.30;0.65;;;;;;;28.17;27.85;101583.52;3556135;81;98807;-83
2022/09/05 12:22:20;;;;;;;2.50;0.33;;;;;;;28.25;27.35;101584.77;3557216;81;99767;-83
2022/09/05 12:27:27;;;;;;;5.97;0.72;;;;;;;27.86;27.18;101592.11;3549159;81;99554;-86
2022/09/05 12:32:30;;;;;;;1.65;0.70;;;;;;;27.51;26.87;101571.53;3544428;81;98690;-84
2022/09/05 12:37:51;;;;;;;1.32;0.45;;;;;;;26.99;26.75;101589.30;3529305;81;98927;-85
2022/09/05 12:43:02;;;;;;;3.22;0.60;;;;;;;26.77;27.26;101565.13;3526662;81;98757;-83
2022/09/05 12:48:30;;;;;;;1.57;0.40;;;;;;;26.92;28.02;101570.42;3551826;81;98908;-84
2022/09/05 12:53:55;;;;;;;0.80;0.40;;;;;;;26.63;27.24;101565.65;3540990;82;98870;-83
2022/09/05 12:58:57;;;;;;;0.98;0.50;;;;;;;26.68;27.86;101572.92;3537674;82;98947;-84
2022/09/05 13:04:21;;;;;;;5.62;1.00;;;;;;;26.24;27.16;101570.48;3534297;82;98831;-83
2022/09/05 13:09:42;;;;;;;2.85;0.70;;;;;;;25.80;27.88;101568.14;3545267;81;98829;-85
2022/09/05 13:15:05;;;;;;;1.47;0.40;;;;;;;25.82;28.14;101560.64;3525897;81;98830;-85
2022/09/05 13:20:20;;;;;;;6.40;0.70;;;;;;;25.64;28.72;101553.38;3539054;81;99018;-84
2022/09/05 13:25:28;;;;;;;2.30;0.60;;;;;;;25.50;28.39;101558.86;3528876;81;99007;-85
2022/09/05 13:30:34;;;;;;;2.40;0.68;;;;;;;25.43;29.17;101546.41;3539564;81;98951;-83
2022/09/05 13:35:48;;;;;;;4.45;0.98;;;;;;;25.44;29.50;101539.53;3539306;82;98813;-84
2022/09/05 13:40:50;;;;;;;4.37;0.95;;;;;;;25.38;28.58;101539.92;3535880;81;99144;-83
2022/09/05 13:46:09;;;;;;;3.10;0.70;;;;;;;25.28;29.29;101526.95;3537060;81;98847;-84
2022/09/05 13:51:42;;;;;;;2.30;0.60;;;;;;;25.02;28.46;101528.78;3544194;82;98944;-85
2022/09/05 13:57:03;;;;;;;5.60;1.95;;;;;;;25.06;30.35;101513.98;3546059;81;98868;-84
2022/09/05 14:02:31;;;;;;;2.37;0.60;;;;;;;24.98;29.62;101521.05;3547380;81;98830;-84
2022/09/05 14:07:57;;;;;;;12.27;1.27;;;;;;;24.97;29.96;101514.66;3546134;81;98761;-85
2022/09/05 14:13:10;;;;;;;2.40;0.70;;;;;;;24.86;29.67;101507.75;3554875;81;99144;-84
2022/09/05 14:21:14;;;;;;;9.68;1.20;;;;;;;24.59;28.78;101503.94;3571726;81;98936;-83
2022/09/05 14:23:52;;;;;;;2.67;0.68;;;;;;;24.53;30.48;101496.45;3541571;81;98839;-84
2022/09/05 14:29:13;;;;;;;3.27;0.88;;;;;;;24.51;30.16;101492.67;3522733;81;98913;-83
2022/09/05 14:34:33;;;;;;;1.87;0.72;;;;;;;24.24;29.95;101488.02;3537856;81;98763;-83
2022/09/05 14:40:02;;;;;;;2.15;0.60;;;;;;;24.07;29.89;101492.13;3537407;81;98867;-83
2022/09/05 14:45:35;;;;;;;1.90;0.62;;;;;;;24.02;30.77;101496.08;3550057;81;99185;-84
2022/09/05 14:51:12;;;;;;;1.27;0.40;;;;;;;23.90;30.76;101494.80;3546938;81;108142;-83
2022/09/05 14:56:17;;;;;;;4.72;0.70;;;;;;;23.79;31.11;101492.86;3546810;82;99100;-84
2022/09/05 15:01:18;;;;;;;2.13;0.93;;;;;;;23.25;30.49;101469.34;3537497;81;98733;-85
2022/09/05 15:06:22;;;;;;;2.22;0.70;;;;;;;23.25;30.49;101469.34;3544546;81;98763;-79
2022/09/05 15:11:26;;;;;;;2.55;0.55;;;;;;;23.12;30.55;101474.66;3538119;81;99022;-85
2022/09/05 15:16:28;;;;;;;1.90;0.50;;;;;;;23.03;30.85;101470.25;3523802;82;98852;-85
2022/09/05 15:21:36;;;;;;;1.82;0.42;;;;;;;22.98;30.85;101468.76;3544563;82;98874;-85
2022/09/05 15:26:53;;;;;;;3.12;0.42;;;;;;;22.97;31.64;101466.38;3539770;82;98935;-85
2022/09/05 15:32:21;;;;;;;2.50;0.78;;;;;;;22.93;31.59;101460.05;3543968;81;99218;-85
2022/09/05 15:37:35;;;;;;;4.53;0.45;;;;;;;22.83;31.75;101459.70;3530872;81;98898;-84
2022/09/05 15:42:54;;;;;;;0.90;0.60;;;;;;;22.69;31.30;101451.59;3543842;82;99024;-84
2022/09/05 15:48:15;;;;;;;0.60;0.40;;;;;;;22.58;31.21;101455.25;3544537;81;98684;-85
2022/09/05 15:53:37;;;;;;;4.75;0.98;;;;;;;22.38;31.21;101453.84;3543929;81;98860;-85
2022/09/05 15:58:40;;;;;;;3.57;0.73;;;;;;;22.39;31.89;101458.84;3557663;81;98997;-85
2022/09/05 16:03:42;;;;;;;2.67;0.30;;;;;;;22.32;32.38;101454.16;3549259;82;98939;-84
2022/09/05 16:08:55;;;;;;;7.00;2.60;;;;;;;22.11;31.69;101449.58;3554595;82;99128;-84
2022/09/05 16:14:21;;;;;;;6.92;2.47;;;;;;;21.95;31.81;101453.10;3558060;81;98909;-86
2022/09/05 16:19:46;;;;;;;3.02;1.00;;;;;;;21.82;32.24;101463.97;3548255;81;98975;-85
2022/09/05 16:24:55;;;;;;;2.67;0.65;;;;;;;21.69;31.98;101454.61;3549592;81;98889;-83
2022/09/05 16:29:56;;;;;;;2.12;0.40;;;;;;;21.42;31.96;101430.05;3564115;81;98990;-84
2022/09/05 16:35:10;;;;;;;2.35;0.40;;;;;;;21.40;32.16;101443.08;3549113;81;98622;-84
2022/09/05 16:40:31;;;;;;;0.75;0.30;;;;;;;21.30;32.30;101455.87;3557254;81;98936;-84
2022/09/05 16:45:56;;;;;;;2.10;0.40;;;;;;;21.18;32.46;101447.45;3550009;81;101225;-84
2022/09/05 16:51:36;;;;;;;3.60;0.55;;;;;;;21.11;32.89;101442.56;3559566;81;99037;-84
2022/09/05 16:56:47;;;;;;;3.80;0.67;;;;;;;20.96;33.03;101448.99;3547160;81;98828;-85
2022/09/05 17:02:25;;;;;;;1.37;0.35;;;;;;;20.85;33.46;101439.12;3528486;81;99047;-85
2022/09/05 17:08:06;;;;;;;2.10;0.50;;;;;;;20.73;33.79;101443.91;3494095;81;98989;-85
2022/09/05 17:13:12;;;;;;;6.47;1.57;;;;;;;20.57;34.26;101444.54;3521105;81;98912;-85
2022/09/05 17:18:17;;;;;;;2.42;0.55;;;;;;;20.46;34.37;101438.30;3528542;81;99008;-84
2022/09/05 17:23:26;;;;;;;4.72;0.95;;;;;;;20.33;34.95;101440.67;3522019;81;98893;-86
2022/09/05 17:28:53;;;;;;;3.95;0.80;;;;;;;20.17;35.05;101444.66;3536744;81;98648;-86
2022/09/05 17:33:55;;;;;;;1.87;0.50;;;;;;;20.03;35.75;101445.59;3520630;81;99095;-86
2022/09/05 17:39:13;;;;;;;2.45;0.53;;;;;;;19.85;36.01;101453.97;3530514;81;99436;-86
2022/09/05 17:44:44;;;;;;;5.70;0.98;;;;;;;19.69;36.46;101446.16;3525591;82;98937;-85
2022/09/05 17:49:47;;;;;;;2.42;0.93;;;;;;;19.50;36.71;101445.33;3532704;81;99097;-85
2022/09/05 17:54:51;;;;;;;4.03;1.07;;;;;;;19.31;37.02;101447.31;3541122;80;99023;-84
2022/09/05 18:00:00;;;;;;;1.85;0.88;;;;;;;19.18;37.81;101456.55;3588769;80;99033;-85
2022/09/05 18:05:07;;;;;;;5.80;1.72;;;;;;;19.03;37.94;101460.65;3583077;80;98926;-86
2022/09/05 18:10:08;;;;;;;5.53;1.42;;;;;;;18.90;38.32;101474.28;3590784;80;98839;-85
2022/09/05 18:15:26;;;;;;;2.52;0.70;;;;;;;18.73;38.69;101475.17;3584506;80;98828;-86
2022/09/05 18:20:45;;;;;;;3.60;1.57;;;;;;;18.55;38.82;101473.67;3555882;81;106251;-86
2022/09/05 18:26:08;;;;;;;5.08;1.20;;;;;;;18.39;39.33;101478.34;3564010;80;98921;-87
2022/09/05 18:31:40;;;;;;;2.40;1.07;;;;;;;18.24;39.59;101484.32;3573795;81;98923;-87
2022/09/05 18:36:52;;;;;;;4.03;1.25;;;;;;;18.07;39.75;101485.17;3567288;81;98518;-86
2022/09/05 18:42:00;;;;;;;3.83;0.80;;;;;;;17.94;40.37;101482.62;3552956;81;98827;-87
2022/09/05 18:47:08;;;;;;;2.90;1.12;;;;;;;17.77;40.41;101493.98;3559965;81;98579;-87
2022/09/05 18:52:34;;;;;;;2.67;0.90;;;;;;;17.67;40.66;101499.58;3557898;80;99000;-88
2022/09/05 18:57:37;;;;;;;2.95;0.90;;;;;;;17.57;40.92;101497.58;3585744;80;98851;-86
2022/09/05 19:02:54;;;;;;;3.12;1.02;;;;;;;17.45;41.37;101499.38;3599800;80;98957;-87
2022/09/05 19:07:56;;;;;;;5.62;1.45;;;;;;;17.36;41.66;101498.94;3591013;80;98938;-87
2022/09/05 19:13:14;;;;;;;5.12;1.20;;;;;;;17.25;41.95;101498.95;3569045;80;98844;-87
2022/09/05 19:18:20;;;;;;;2.87;1.02;;;;;;;17.18;42.08;101500.34;3564393;81;99728;-88
2022/09/05 19:23:29;;;;;;;6.58;1.30;;;;;;;17.10;42.23;101497.33;3557680;80;98886;-86
2022/09/05 19:28:37;;;;;;;5.85;1.20;;;;;;;17.00;42.63;101488.98;3561450;80;99797;-88
2022/09/05 19:33:39;;;;;;;4.33;1.30;;;;;;;16.91;42.81;101494.12;3590111;79;98893;-86
2022/09/05 19:38:46;;;;;;;2.70;0.98;;;;;;;16.83;43.28;101493.30;3574628;80;99068;-86
2022/09/05 19:43:57;;;;;;;;;;;;;;;16.75;43.94;101490.89;3590098;80;98607;-87
2022/09/05 19:49:07;;;;;;;3.67;1.40;;;;;;;16.65;44.94;101488.30;3587547;80;85166;-87
2022/09/05 19:54:29;;;;;;;11.35;2.15;;;;;;;16.56;44.79;101483.69;3566300;81;98668;-87
2022/09/05 19:59:38;;;;;;;7.80;1.82;;;;;;;16.49;45.66;101486.45;3568974;80;99041;-87
2022/09/05 20:04:47;;;;;;;3.57;1.30;;;;;;;16.44;45.91;101483.23;3581665;80;98880;-87
2022/09/05 20:09:51;;;;;;;4.55;1.92;;;;;;;16.36;47.00;101485.16;3576362;80;98893;-86
2022/09/05 20:14:52;;;;;;;4.95;1.30;;;;;;;16.30;47.46;101489.50;3555306;80;98805;-87
2022/09/05 20:20:10;;;;;;;6.12;1.30;;;;;;;16.27;47.78;101497.81;3578269;80;99010;-88
2022/09/05 20:25:38;;;;;;;6.40;1.40;;;;;;;16.22;48.22;101485.11;3573571;80;98890;-88
2022/09/05 20:30:44;;;;;;;4.62;1.30;;;;;;;16.17;48.86;101475.75;3556868;81;98853;-88
2022/09/05 20:35:46;;;;;;;4.90;1.90;;;;;;;16.09;49.07;101479.66;3561640;81;98863;-88
2022/09/05 20:40:48;;;;;;;3.70;1.50;;;;;;;16.06;49.57;101479.65;3560552;80;98858;-88
2022/09/05 20:45:53;;;;;;;7.25;1.52;;;;;;;15.98;50.11;101471.86;3572532;80;98798;-88
2022/09/05 20:50:55;;;;;;;8.80;2.08;;;;;;;15.93;50.43;101479.20;3581005;80;98926;-89
2022/09/05 20:56:08;;;;;;;5.33;1.67;;;;;;;15.86;50.89;101473.58;3581951;80;98906;-89
2022/09/05 21:01:13;;;;;;;4.90;1.72;;;;;;;15.82;51.06;101480.31;3571531;80;98822;-88
2022/09/05 21:06:31;;;;;;;3.57;1.50;;;;;;;15.73;51.50;101476.48;3583024;80;99009;-89
2022/09/05 21:11:33;;;;;;;11.78;1.87;;;;;;;15.67;52.42;101478.03;3584402;80;98789;-88
2022/09/05 21:16:48;;;;;;;7.53;2.10;;;;;;;15.62;52.13;101474.80;3580511;80;99134;-89
2022/09/05 21:22:02;;;;;;;4.67;1.67;;;;;;;15.55;52.64;101476.95;3584856;80;99210;-88
2022/09/05 21:27:22;;;;;;;5.83;1.65;;;;;;;15.49;53.30;101481.85;3557913;80;98839;-89
2022/09/05 21:32:23;;;;;;;4.08;1.62;;;;;;;15.42;53.28;101480.42;3562584;81;99430;-88
2022/09/05 21:37:24;;;;;;;5.00;1.37;;;;;;;15.38;53.78;101489.30;3577367;80;98848;-89
2022/09/05 21:42:27;;;;;;;2.87;1.20;;;;;;;15.34;53.94;101495.39;3557330;80;99376;-88
2022/09/05 21:47:28;;;;;;;4.33;1.10;;;;;;;15.27;54.33;101492.53;3554951;81;98863;-90
2022/09/05 21:52:29;;;;;;;3.42;1.00;;;;;;;15.21;54.15;101487.91;3553631;81;99033;-88
2022/09/05 21:57:31;;;;;;;4.27;1.60;;;;;;;15.14;54.59;101498.14;3550101;81;98900;-88
2022/09/05 22:02:33;;;;;;;2.02;1.00;;;;;;;15.06;54.87;101499.27;3561306;81;100203;-88
2022/09/05 22:07:34;;;;;;;4.72;1.60;;;;;;;15.00;55.21;101506.34;3547134;81;99158;-89
2022/09/05 22:12:37;;;;;;;4.80;1.42;;;;;;;14.90;55.43;101505.05;3571089;81;98908;-88
2022/09/05 22:17:42;;;;;;;4.62;1.57;;;;;;;14.82;56.07;101506.75;3562024;81;99007;-87
2022/09/05 22:22:43;;;;;;;3.80;1.40;;;;;;;14.72;56.18;101504.05;3573102;81;98780;-88
2022/09/05 22:27:44;;;;;;;4.77;1.87;;;;;;;14.65;56.45;101503.97;3553885;81;98730;-88
2022/09/05 22:32:46;;;;;;;5.30;2.10;;;;;;;14.52;58.67;101504.02;3567742;81;98961;-89
2022/09/05 22:37:48;;;;;;;4.37;1.30;;;;;;;14.43;58.10;101488.27;3558725;81;98819;-88
2022/09/05 22:42:58;;;;;;;6.00;1.60;;;;;;;14.35;57.51;101496.88;3578139;80;98998;-88
2022/09/05 22:48:05;;;;;;;5.65;1.55;;;;;;;14.32;57.55;101485.95;3580418;81;99039;-88
2022/09/05 22:53:07;;;;;;;5.30;1.60;;;;;;;14.27;58.44;101477.98;3556926;81;99043;-88
2022/09/05 22:58:12;;;;;;;5.35;2.02;;;;;;;14.20;58.00;101482.62;3552910;81;98899;-89
2022/09/05 23:03:13;;;;;;;5.27;1.87;;;;;;;14.10;58.51;101477.13;3565164;80;98897;-89
2022/09/05 23:08:14;;;;;;;5.03;2.13;;;;;;;14.04;58.80;101473.67;3539469;82;98752;-88
2022/09/05 23:13:15;;;;;;;5.30;1.83;;;;;;;14.00;58.82;101470.86;3553489;82;99004;-89
2022/09/05 23:18:16;;;;;;;5.35;2.08;;;;;;;13.95;58.96;101471.78;3543810;82;98819;-89
2022/09/05 23:23:17;;;;;;;5.45;2.02;;;;;;;13.90;59.75;101478.42;3532998;81;99206;-89
2022/09/05 23:28:18;;;;;;;4.43;2.00;;;;;;;13.83;59.75;101483.86;3537861;82;98824;-89
2022/09/05 23:33:19;;;;;;;6.10;2.10;;;;;;;13.78;60.46;101479.22;3560686;80;98960;-81
2022/09/05 23:38:20;;;;;;;5.03;1.80;;;;;;;13.71;60.06;101474.41;3538016;81;98872;-88
2022/09/05 23:43:23;;;;;;;5.70;2.62;;;;;;;13.68;60.27;101479.89;3542011;80;99131;-89
2022/09/05 23:48:25;;;;;;;6.57;2.20;;;;;;;13.65;60.87;101479.23;3559693;82;105862;-88
2022/09/05 23:53:26;;;;;;;6.70;2.10;;;;;;;13.58;60.91;101479.91;3527667;82;105543;-89
2022/09/05 23:58:29;;;;;;;6.30;2.40;;;;;;;13.50;61.34;101477.41;3550574;81;99209;-89
